This is the latest recevied weather packets stored in our database for station/object KC3SPD-13. If no packets are shown the sender has not sent any weather packets the latest 10 day(s).
| Time | Temp. | Humidity | Pressure | Rain* | Wind** | Luminosity | Snow |
|---|---|---|---|---|---|---|---|
| 1776972304 | 26.11° C | 41% | 964.9 hPa | 0 mm | - | 0 W/m² | - |
| 1776972004 | 26.11° C | 42% | 965.1 hPa | 0 mm | - | 0 W/m² | - |
| 1776970804 | 26.11° C | 42% | 965.4 hPa | 0 mm | - | 0 W/m² | - |
| 1776969904 | 25.56° C | 44% | 965.5 hPa | 0 mm | - | 0 W/m² | - |
| 1776969004 | 25.56° C | 43% | 965.6 hPa | 0 mm | - | 0 W/m² | - |
| 1776967504 | 25° C | 44% | 966.1 hPa | 0 mm | - | 0 W/m² | - |
| 1776966904 | 25° C | 45% | 966.1 hPa | 0 mm | - | 0 W/m² | - |
| 1776966303 | 24.44° C | 47% | 966.2 hPa | 0 mm | - | 0 W/m² | - |
| 1776965404 | 23.89° C | 47% | 966.4 hPa | 0 mm | - | 0 W/m² | - |
| 1776963004 | 23.89° C | 48% | 966.9 hPa | 0 mm | - | 0 W/m² | - |
| 1776962704 | 23.89° C | 50% | 967 hPa | 0 mm | - | 0 W/m² | - |
| 1776962404 | 23.89° C | 49% | 967.2 hPa | 0 mm | - | 0 W/m² | - |
| 1776960304 | 22.78° C | 51% | 967.5 hPa | 0 mm | - | 0 W/m² | - |
| 1776958504 | 21.67° C | 58% | 967.7 hPa | 0 mm | - | 0 W/m² | - |
| 1776957005 | 21.67° C | 60% | 967.7 hPa | 0 mm | - | 0 W/m² | - |
| 1776951005 | 18.33° C | 67% | 968.4 hPa | 0 mm | - | 0 W/m² | - |
| 1776950404 | 18.33° C | 71% | 968.4 hPa | 0 mm | - | 0 W/m² | - |
| 1776950104 | 17.78° C | 71% | 968.5 hPa | 0 mm | - | 0 W/m² | - |
| 1776949504 | 17.78° C | 73% | 968.5 hPa | 0 mm | - | 0 W/m² | - |
| 1776948604 | 17.22° C | 75% | 968.3 hPa | 0 mm | - | 323 W/m² | - |
| 1776948304 | 16.67° C | 76% | 968.4 hPa | 0 mm | - | 305 W/m² | - |
| 1776945004 | 15.56° C | 79% | 968.3 hPa | 0 mm | - | 90 W/m² | - |
| 1776944704 | 15.56° C | 79% | 968.3 hPa | 0 mm | - | 80 W/m² | - |
| 1776942304 | 15° C | 78% | 968 hPa | 0 mm | - | 5 W/m² | - |
| 1776942004 | 15° C | 78% | 967.9 hPa | 0 mm | - | 22 W/m² | - |
* Rain latest hour (hover to see other rain measurements)
** Current wind speed in m/s (hover to see current wind gust speed)